sensor_id;sensor_type;location;lat;lon;timestamp;pressure;altitude;pressure_sealevel;temperature;humidity
61119;BME280;51448;51.660;5.824;2023-08-17T00:00:05;101885.06;;;19.00;90.74
61119;BME280;51448;51.660;5.824;2023-08-17T00:02:36;101885.13;;;18.99;90.79
61119;BME280;51448;51.660;5.824;2023-08-17T00:05:03;101887.91;;;18.97;90.92
61119;BME280;51448;51.660;5.824;2023-08-17T00:07:34;101882.63;;;18.96;90.85
61119;BME280;51448;51.660;5.824;2023-08-17T00:10:02;101882.63;;;18.96;90.71
61119;BME280;51448;51.660;5.824;2023-08-17T00:12:30;101887.16;;;18.94;91.13
61119;BME280;51448;51.660;5.824;2023-08-17T00:14:57;101883.63;;;18.93;90.94
61119;BME280;51448;51.660;5.824;2023-08-17T00:17:25;101892.63;;;18.90;90.96
61119;BME280;51448;51.660;5.824;2023-08-17T00:19:53;101889.09;;;18.90;91.03
61119;BME280;51448;51.660;5.824;2023-08-17T00:22:20;101893.50;;;18.91;91.26
61119;BME280;51448;51.660;5.824;2023-08-17T00:24:48;101893.63;;;18.88;91.15
61119;BME280;51448;51.660;5.824;2023-08-17T00:27:16;101887.50;;;18.86;90.83
61119;BME280;51448;51.660;5.824;2023-08-17T00:29:43;101887.56;;;18.84;91.15
61119;BME280;51448;51.660;5.824;2023-08-17T00:32:10;101877.78;;;18.85;91.31
61119;BME280;51448;51.660;5.824;2023-08-17T00:34:38;101871.69;;;18.83;91.42
61119;BME280;51448;51.660;5.824;2023-08-17T00:37:05;101870.00;;;18.80;91.35
61119;BME280;51448;51.660;5.824;2023-08-17T00:39:33;101864.78;;;18.77;91.31
61119;BME280;51448;51.660;5.824;2023-08-17T00:42:01;101867.50;;;18.76;91.72
61119;BME280;51448;51.660;5.824;2023-08-17T00:44:28;101860.53;;;18.73;91.81
61119;BME280;51448;51.660;5.824;2023-08-17T00:46:56;101855.31;;;18.70;91.99
61119;BME280;51448;51.660;5.824;2023-08-17T00:49:23;101849.38;;;18.65;92.30
61119;BME280;51448;51.660;5.824;2023-08-17T00:51:51;101851.34;;;18.60;92.41
61119;BME280;51448;51.660;5.824;2023-08-17T00:54:25;101849.69;;;18.57;92.58
61119;BME280;51448;51.660;5.824;2023-08-17T00:56:54;101849.06;;;18.52;92.74
61119;BME280;51448;51.660;5.824;2023-08-17T00:59:22;101850.03;;;18.49;92.81
61119;BME280;51448;51.660;5.824;2023-08-17T01:01:51;101856.44;;;18.45;93.01
61119;BME280;51448;51.660;5.824;2023-08-17T01:04:19;101848.66;;;18.41;93.19
61119;BME280;51448;51.660;5.824;2023-08-17T01:06:47;101852.34;;;18.38;93.61
61119;BME280;51448;51.660;5.824;2023-08-17T01:09:14;101851.59;;;18.35;94.03
61119;BME280;51448;51.660;5.824;2023-08-17T01:11:49;101858.94;;;18.29;93.94
61119;BME280;51448;51.660;5.824;2023-08-17T01:14:32;101851.13;;;18.25;94.21
61119;BME280;51448;51.660;5.824;2023-08-17T01:17:17;101859.34;;;18.20;94.67
61119;BME280;51448;51.660;5.824;2023-08-17T01:19:50;101860.34;;;18.18;94.81
61119;BME280;51448;51.660;5.824;2023-08-17T01:22:21;101862.22;;;18.16;94.75
61119;BME280;51448;51.660;5.824;2023-08-17T01:24:49;101863.22;;;18.13;95.10
61119;BME280;51448;51.660;5.824;2023-08-17T01:27:24;101863.38;;;18.08;95.22
61119;BME280;51448;51.660;5.824;2023-08-17T01:29:52;101854.59;;;18.06;95.49
61119;BME280;51448;51.660;5.824;2023-08-17T01:32:37;101855.63;;;18.04;95.78
61119;BME280;51448;51.660;5.824;2023-08-17T01:35:17;101850.56;;;17.98;96.50
61119;BME280;51448;51.660;5.824;2023-08-17T01:37:58;101855.22;;;17.93;97.28
61119;BME280;51448;51.660;5.824;2023-08-17T01:40:34;101842.97;;;17.88;97.59
61119;BME280;51448;51.660;5.824;2023-08-17T01:43:02;101857.34;;;17.84;97.39
61119;BME280;51448;51.660;5.824;2023-08-17T01:45:30;101846.78;;;17.81;98.46
61119;BME280;51448;51.660;5.824;2023-08-17T01:48:01;101858.53;;;17.76;98.34
61119;BME280;51448;51.660;5.824;2023-08-17T01:50:30;101856.94;;;17.72;98.53
61119;BME280;51448;51.660;5.824;2023-08-17T01:52:58;101849.16;;;17.67;98.48
61119;BME280;51448;51.660;5.824;2023-08-17T01:55:25;101848.34;;;17.65;98.65
61119;BME280;51448;51.660;5.824;2023-08-17T01:57:54;101848.41;;;17.63;98.80
61119;BME280;51448;51.660;5.824;2023-08-17T02:00:22;101853.00;;;17.60;98.92
61119;BME280;51448;51.660;5.824;2023-08-17T02:02:49;101847.00;;;17.55;98.80
61119;BME280;51448;51.660;5.824;2023-08-17T02:05:17;101851.47;;;17.54;99.03
61119;BME280;51448;51.660;5.824;2023-08-17T02:07:45;101850.66;;;17.52;99.09
61119;BME280;51448;51.660;5.824;2023-08-17T02:10:14;101854.31;;;17.49;98.90
61119;BME280;51448;51.660;5.824;2023-08-17T02:12:41;101852.56;;;17.48;99.28
61119;BME280;51448;51.660;5.824;2023-08-17T02:15:09;101866.88;;;17.46;99.28
61119;BME280;51448;51.660;5.824;2023-08-17T02:17:37;101872.25;;;17.44;99.14
61119;BME280;51448;51.660;5.824;2023-08-17T02:20:05;101866.06;;;17.44;99.32
61119;BME280;51448;51.660;5.824;2023-08-17T02:22:34;101872.31;;;17.43;99.56
61119;BME280;51448;51.660;5.824;2023-08-17T02:25:02;101875.91;;;17.42;99.43
61119;BME280;51448;51.660;5.824;2023-08-17T02:27:29;101867.88;;;17.43;99.46
61119;BME280;51448;51.660;5.824;2023-08-17T02:29:58;101869.59;;;17.44;99.63
61119;BME280;51448;51.660;5.824;2023-08-17T02:32:27;101859.81;;;17.45;99.84
61119;BME280;51448;51.660;5.824;2023-08-17T02:34:55;101861.59;;;17.44;99.60
61119;BME280;51448;51.660;5.824;2023-08-17T02:37:22;101857.22;;;17.43;99.62
61119;BME280;51448;51.660;5.824;2023-08-17T02:39:50;101858.09;;;17.44;99.60
61119;BME280;51448;51.660;5.824;2023-08-17T02:42:18;101849.16;;;17.45;99.50
61119;BME280;51448;51.660;5.824;2023-08-17T02:44:46;101847.44;;;17.44;99.50
61119;BME280;51448;51.660;5.824;2023-08-17T02:47:14;101846.59;;;17.43;99.51
61119;BME280;51448;51.660;5.824;2023-08-17T02:49:41;101849.31;;;17.42;99.82
61119;BME280;51448;51.660;5.824;2023-08-17T02:52:09;101847.50;;;17.42;99.61
61119;BME280;51448;51.660;5.824;2023-08-17T02:54:36;101840.53;;;17.40;99.52
61119;BME280;51448;51.660;5.824;2023-08-17T02:57:04;101837.97;;;17.37;99.32
61119;BME280;51448;51.660;5.824;2023-08-17T02:59:31;101841.53;;;17.37;99.74
61119;BME280;51448;51.660;5.824;2023-08-17T03:01:59;101828.38;;;17.33;99.76
61119;BME280;51448;51.660;5.824;2023-08-17T03:04:26;101833.91;;;17.28;99.66
61119;BME280;51448;51.660;5.824;2023-08-17T03:06:56;101838.47;;;17.24;99.61
61119;BME280;51448;51.660;5.824;2023-08-17T03:09:23;101840.41;;;17.21;99.87
61119;BME280;51448;51.660;5.824;2023-08-17T03:11:50;101837.84;;;17.18;100.00
61119;BME280;51448;51.660;5.824;2023-08-17T03:14:18;101831.88;;;17.13;100.00
61119;BME280;51448;51.660;5.824;2023-08-17T03:16:46;101842.56;;;17.11;100.00
61119;BME280;51448;51.660;5.824;2023-08-17T03:19:15;101837.44;;;17.06;100.00
61119;BME280;51448;51.660;5.824;2023-08-17T03:21:43;101843.72;;;17.04;100.00
61119;BME280;51448;51.660;5.824;2023-08-17T03:24:11;101840.34;;;17.00;100.00
61119;BME280;51448;51.660;5.824;2023-08-17T03:26:38;101833.31;;;16.98;100.00
61119;BME280;51448;51.660;5.824;2023-08-17T03:29:08;101831.72;;;16.94;100.00
61119;BME280;51448;51.660;5.824;2023-08-17T03:31:37;101835.31;;;16.93;100.00
61119;BME280;51448;51.660;5.824;2023-08-17T03:34:07;101837.97;;;16.93;100.00
61119;BME280;51448;51.660;5.824;2023-08-17T03:36:35;101831.78;;;16.92;100.00
61119;BME280;51448;51.660;5.824;2023-08-17T03:39:02;101832.66;;;16.93;100.00
61119;BME280;51448;51.660;5.824;2023-08-17T03:41:31;101819.38;;;16.93;100.00
61119;BME280;51448;51.660;5.824;2023-08-17T03:43:58;101827.28;;;16.94;100.00
61119;BME280;51448;51.660;5.824;2023-08-17T03:46:26;101821.06;;;16.94;100.00
61119;BME280;51448;51.660;5.824;2023-08-17T03:48:53;101829.84;;;16.96;100.00
61119;BME280;51448;51.660;5.824;2023-08-17T03:51:21;101821.88;;;16.96;100.00
61119;BME280;51448;51.660;5.824;2023-08-17T03:53:48;101827.19;;;16.96;100.00
61119;BME280;51448;51.660;5.824;2023-08-17T03:56:17;101830.75;;;16.96;100.00
61119;BME280;51448;51.660;5.824;2023-08-17T03:58:45;101831.66;;;16.95;100.00
61119;BME280;51448;51.660;5.824;2023-08-17T04:01:12;101829.06;;;16.94;100.00
61119;BME280;51448;51.660;5.824;2023-08-17T04:03:44;101830.00;;;16.93;100.00
61119;BME280;51448;51.660;5.824;2023-08-17T04:06:11;101823.81;;;16.92;100.00
61119;BME280;51448;51.660;5.824;2023-08-17T04:08:39;101830.03;;;16.91;100.00
61119;BME280;51448;51.660;5.824;2023-08-17T04:11:06;101823.91;;;16.89;100.00
61119;BME280;51448;51.660;5.824;2023-08-17T04:13:34;101840.84;;;16.86;100.00
61119;BME280;51448;51.660;5.824;2023-08-17T04:16:01;101832.94;;;16.85;100.00
61119;BME280;51448;51.660;5.824;2023-08-17T04:18:29;101841.84;;;16.84;100.00
61119;BME280;51448;51.660;5.824;2023-08-17T04:20:57;101843.69;;;16.82;100.00
61119;BME280;51448;51.660;5.824;2023-08-17T04:23:25;101830.44;;;16.80;100.00
61119;BME280;51448;51.660;5.824;2023-08-17T04:25:53;101840.25;;;16.78;100.00
61119;BME280;51448;51.660;5.824;2023-08-17T04:28:22;101847.47;;;16.75;100.00
61119;BME280;51448;51.660;5.824;2023-08-17T04:30:52;101845.00;;;16.70;100.00
61119;BME280;51448;51.660;5.824;2023-08-17T04:33:19;101857.47;;;16.68;100.00
61119;BME280;51448;51.660;5.824;2023-08-17T04:35:48;101852.25;;;16.65;100.00
61119;BME280;51448;51.660;5.824;2023-08-17T04:38:15;101854.09;;;16.63;100.00
61119;BME280;51448;51.660;5.824;2023-08-17T04:40:44;101855.94;;;16.61;100.00
61119;BME280;51448;51.660;5.824;2023-08-17T04:43:13;101857.88;;;16.57;100.00
61119;BME280;51448;51.660;5.824;2023-08-17T04:45:40;101865.06;;;16.54;100.00
61119;BME280;51448;51.660;5.824;2023-08-17T04:48:08;101855.44;;;16.51;100.00
61119;BME280;51448;51.660;5.824;2023-08-17T04:50:36;101861.59;;;16.52;100.00
61119;BME280;51448;51.660;5.824;2023-08-17T04:53:04;101858.13;;;16.49;100.00
61119;BME280;51448;51.660;5.824;2023-08-17T04:55:31;101854.53;;;16.50;100.00
61119;BME280;51448;51.660;5.824;2023-08-17T04:58:01;101857.16;;;16.52;100.00
61119;BME280;51448;51.660;5.824;2023-08-17T05:00:29;101862.47;;;16.52;100.00
61119;BME280;51448;51.660;5.824;2023-08-17T05:02:58;101865.97;;;16.53;100.00
61119;BME280;51448;51.660;5.824;2023-08-17T05:05:31;101861.56;;;16.53;100.00
61119;BME280;51448;51.660;5.824;2023-08-17T05:07:59;101857.06;;;16.55;100.00
61119;BME280;51448;51.660;5.824;2023-08-17T05:10:27;101864.84;;;16.60;100.00
61119;BME280;51448;51.660;5.824;2023-08-17T05:12:55;101850.53;;;16.64;100.00
61119;BME280;51448;51.660;5.824;2023-08-17T05:15:23;101850.41;;;16.67;100.00
61119;BME280;51448;51.660;5.824;2023-08-17T05:17:50;101852.00;;;16.71;100.00
61119;BME280;51448;51.660;5.824;2023-08-17T05:20:18;101851.91;;;16.74;100.00
61119;BME280;51448;51.660;5.824;2023-08-17T05:22:47;101853.53;;;16.78;100.00
61119;BME280;51448;51.660;5.824;2023-08-17T05:25:15;101859.56;;;16.83;100.00
61119;BME280;51448;51.660;5.824;2023-08-17T05:27:42;101855.84;;;16.87;100.00
61119;BME280;51448;51.660;5.824;2023-08-17T05:30:10;101854.81;;;16.92;100.00
61119;BME280;51448;51.660;5.824;2023-08-17T05:32:40;101852.00;;;16.96;100.00
61119;BME280;51448;51.660;5.824;2023-08-17T05:35:07;101852.72;;;17.00;100.00
61119;BME280;51448;51.660;5.824;2023-08-17T05:37:36;101846.31;;;17.05;100.00
61119;BME280;51448;51.660;5.824;2023-08-17T05:40:04;101846.25;;;17.07;100.00
61119;BME280;51448;51.660;5.824;2023-08-17T05:42:32;101855.84;;;17.11;100.00
61119;BME280;51448;51.660;5.824;2023-08-17T05:45:00;101844.22;;;17.14;100.00
61119;BME280;51448;51.660;5.824;2023-08-17T05:47:27;101853.84;;;17.16;100.00
61119;BME280;51448;51.660;5.824;2023-08-17T05:49:55;101851.16;;;17.18;100.00
61119;BME280;51448;51.660;5.824;2023-08-17T05:52:22;101851.97;;;17.20;100.00
61119;BME280;51448;51.660;5.824;2023-08-17T05:54:50;101853.63;;;17.22;100.00
61119;BME280;51448;51.660;5.824;2023-08-17T05:57:17;101859.69;;;17.26;100.00
61119;BME280;51448;51.660;5.824;2023-08-17T05:59:45;101861.28;;;17.30;100.00
61119;BME280;51448;51.660;5.824;2023-08-17T06:02:12;101863.03;;;17.31;100.00
61119;BME280;51448;51.660;5.824;2023-08-17T06:04:40;101870.69;;;17.39;100.00
61119;BME280;51448;51.660;5.824;2023-08-17T06:07:07;101865.13;;;17.45;100.00
61119;BME280;51448;51.660;5.824;2023-08-17T06:09:35;101871.00;;;17.53;100.00
61119;BME280;51448;51.660;5.824;2023-08-17T06:12:02;101875.16;;;17.60;100.00
61119;BME280;51448;51.660;5.824;2023-08-17T06:14:30;101870.44;;;17.67;100.00
61119;BME280;51448;51.660;5.824;2023-08-17T06:16:58;101875.44;;;17.75;100.00
61119;BME280;51448;51.660;5.824;2023-08-17T06:19:26;101870.72;;;17.83;100.00
61119;BME280;51448;51.660;5.824;2023-08-17T06:21:53;101878.50;;;17.87;100.00
61119;BME280;51448;51.660;5.824;2023-08-17T06:24:21;101874.72;;;17.93;100.00
61119;BME280;51448;51.660;5.824;2023-08-17T06:26:51;101876.38;;;17.96;100.00
61119;BME280;51448;51.660;5.824;2023-08-17T06:29:18;101878.81;;;18.00;100.00
61119;BME280;51448;51.660;5.824;2023-08-17T06:31:46;101883.09;;;18.04;100.00
61119;BME280;51448;51.660;5.824;2023-08-17T06:34:14;101873.25;;;18.06;100.00
61119;BME280;51448;51.660;5.824;2023-08-17T06:36:56;101878.44;;;18.09;100.00
61119;BME280;51448;51.660;5.824;2023-08-17T06:39:29;101873.13;;;18.09;100.00
61119;BME280;51448;51.660;5.824;2023-08-17T06:41:57;101867.81;;;18.09;100.00
61119;BME280;51448;51.660;5.824;2023-08-17T06:44:24;101867.81;;;18.09;100.00
61119;BME280;51448;51.660;5.824;2023-08-17T06:46:52;101876.69;;;18.08;100.00
61119;BME280;51448;51.660;5.824;2023-08-17T06:49:19;101869.47;;;18.12;100.00
61119;BME280;51448;51.660;5.824;2023-08-17T06:51:47;101861.25;;;18.17;100.00
61119;BME280;51448;51.660;5.824;2023-08-17T06:54:14;101867.47;;;18.17;99.74
61119;BME280;51448;51.660;5.824;2023-08-17T06:56:42;101866.59;;;18.17;99.99
61119;BME280;51448;51.660;5.824;2023-08-17T06:59:09;101874.50;;;18.18;100.00
61119;BME280;51448;51.660;5.824;2023-08-17T07:01:37;101875.38;;;18.19;99.78
61119;BME280;51448;51.660;5.824;2023-08-17T07:04:06;101875.47;;;18.17;99.52
61119;BME280;51448;51.660;5.824;2023-08-17T07:06:34;101879.91;;;18.17;99.26
61119;BME280;51448;51.660;5.824;2023-08-17T07:09:02;101878.19;;;18.16;99.60
61119;BME280;51448;51.660;5.824;2023-08-17T07:11:32;101878.19;;;18.16;99.68
61119;BME280;51448;51.660;5.824;2023-08-17T07:14:00;101885.16;;;18.18;99.52
61119;BME280;51448;51.660;5.824;2023-08-17T07:16:27;101873.59;;;18.19;99.68
61119;BME280;51448;51.660;5.824;2023-08-17T07:18:55;101883.31;;;18.20;99.71
61119;BME280;51448;51.660;5.824;2023-08-17T07:21:22;101877.91;;;18.22;99.76
61119;BME280;51448;51.660;5.824;2023-08-17T07:23:50;101884.97;;;18.23;99.71
61119;BME280;51448;51.660;5.824;2023-08-17T07:26:18;101890.22;;;18.24;100.00
61119;BME280;51448;51.660;5.824;2023-08-17T07:28:46;101894.63;;;18.25;99.79
61119;BME280;51448;51.660;5.824;2023-08-17T07:31:14;101886.56;;;18.27;99.46
61119;BME280;51448;51.660;5.824;2023-08-17T07:33:42;101884.97;;;18.23;99.53
61119;BME280;51448;51.660;5.824;2023-08-17T07:36:09;101888.50;;;18.23;99.48
61119;BME280;51448;51.660;5.824;2023-08-17T07:38:37;101891.16;;;18.23;99.66
61119;BME280;51448;51.660;5.824;2023-08-17T07:41:04;101886.69;;;18.24;99.42
61119;BME280;51448;51.660;5.824;2023-08-17T07:43:32;101883.09;;;18.25;99.44
61119;BME280;51448;51.660;5.824;2023-08-17T07:46:00;101889.22;;;18.27;99.49
61119;BME280;51448;51.660;5.824;2023-08-17T07:48:27;101885.69;;;18.26;99.28
61119;BME280;51448;51.660;5.824;2023-08-17T07:51:00;101883.97;;;18.25;99.48
61119;BME280;51448;51.660;5.824;2023-08-17T07:53:28;101881.16;;;18.28;99.40
61119;BME280;51448;51.660;5.824;2023-08-17T07:55:55;101883.72;;;18.32;99.42
61119;BME280;51448;51.660;5.824;2023-08-17T07:58:24;101881.84;;;18.34;99.40
61119;BME280;51448;51.660;5.824;2023-08-17T08:00:52;101888.03;;;18.34;99.58
61119;BME280;51448;51.660;5.824;2023-08-17T08:03:19;101890.63;;;18.36;99.45
61119;BME280;51448;51.660;5.824;2023-08-17T08:05:47;101894.28;;;18.33;99.14
61119;BME280;51448;51.660;5.824;2023-08-17T08:08:14;101898.00;;;18.29;98.75
61119;BME280;51448;51.660;5.824;2023-08-17T08:10:44;101896.28;;;18.28;99.26
61119;BME280;51448;51.660;5.824;2023-08-17T08:13:12;101891.69;;;18.32;99.61
61119;BME280;51448;51.660;5.824;2023-08-17T08:15:41;101902.16;;;18.36;99.81
61119;BME280;51448;51.660;5.824;2023-08-17T08:18:08;101898.41;;;18.40;99.58
61119;BME280;51448;51.660;5.824;2023-08-17T08:20:36;101897.56;;;18.40;99.00
61119;BME280;51448;51.660;5.824;2023-08-17T08:23:03;101901.88;;;18.42;99.26
61119;BME280;51448;51.660;5.824;2023-08-17T08:25:31;101895.69;;;18.42;99.03
61119;BME280;51448;51.660;5.824;2023-08-17T08:27:59;101902.78;;;18.41;99.06
61119;BME280;51448;51.660;5.824;2023-08-17T08:30:26;101901.03;;;18.42;99.09
61119;BME280;51448;51.660;5.824;2023-08-17T08:32:54;101903.53;;;18.45;99.47
61119;BME280;51448;51.660;5.824;2023-08-17T08:35:25;101902.47;;;18.49;99.85
61119;BME280;51448;51.660;5.824;2023-08-17T08:37:53;101888.13;;;18.52;99.25
61119;BME280;51448;51.660;5.824;2023-08-17T08:40:27;101899.69;;;18.52;99.04
61119;BME280;51448;51.660;5.824;2023-08-17T08:42:57;101890.09;;;18.48;99.17
61119;BME280;51448;51.660;5.824;2023-08-17T08:45:27;101902.47;;;18.49;99.45
61119;BME280;51448;51.660;5.824;2023-08-17T08:47:59;101901.59;;;18.48;99.52
61119;BME280;51448;51.660;5.824;2023-08-17T08:50:31;101900.75;;;18.48;99.73
61119;BME280;51448;51.660;5.824;2023-08-17T08:53:00;101896.28;;;18.48;99.71
61119;BME280;51448;51.660;5.824;2023-08-17T08:55:38;101903.19;;;18.53;99.50
61119;BME280;51448;51.660;5.824;2023-08-17T08:58:14;101900.47;;;18.54;99.48
61119;BME280;51448;51.660;5.824;2023-08-17T09:00:45;101895.84;;;18.58;99.59
61119;BME280;51448;51.660;5.824;2023-08-17T09:03:15;101895.72;;;18.61;99.77
61119;BME280;51448;51.660;5.824;2023-08-17T09:05:49;101892.00;;;18.65;99.85
61119;BME280;51448;51.660;5.824;2023-08-17T09:08:29;101891.72;;;18.71;99.51
61119;BME280;51448;51.660;5.824;2023-08-17T09:10:57;101889.69;;;18.76;99.74
61119;BME280;51448;51.660;5.824;2023-08-17T09:13:25;101895.72;;;18.81;99.52
61119;BME280;51448;51.660;5.824;2023-08-17T09:15:52;101894.66;;;18.85;98.82
61119;BME280;51448;51.660;5.824;2023-08-17T09:18:20;101889.31;;;18.85;98.89
61119;BME280;51448;51.660;5.824;2023-08-17T09:20:47;101886.50;;;18.88;98.62
61119;BME280;51448;51.660;5.824;2023-08-17T09:23:20;101878.50;;;18.88;98.67
61119;BME280;51448;51.660;5.824;2023-08-17T09:25:50;101881.03;;;18.92;98.51
61119;BME280;51448;51.660;5.824;2023-08-17T09:28:25;101875.63;;;18.93;98.20
61119;BME280;51448;51.660;5.824;2023-08-17T09:30:54;101877.28;;;18.96;98.15
61119;BME280;51448;51.660;5.824;2023-08-17T09:33:26;101881.66;;;18.97;98.29
61119;BME280;51448;51.660;5.824;2023-08-17T09:35:58;101873.38;;;19.03;98.54
61119;BME280;51448;51.660;5.824;2023-08-17T09:38:27;101877.50;;;19.10;98.76
61119;BME280;51448;51.660;5.824;2023-08-17T09:40:57;101875.34;;;19.18;98.09
61119;BME280;51448;51.660;5.824;2023-08-17T09:43:25;101875.13;;;19.23;97.52
61119;BME280;51448;51.660;5.824;2023-08-17T09:45:57;101871.44;;;19.25;97.26
61119;BME280;51448;51.660;5.824;2023-08-17T09:48:24;101866.81;;;19.29;97.83
61119;BME280;51448;51.660;5.824;2023-08-17T09:50:55;101863.78;;;19.37;98.49
61119;BME280;51448;51.660;5.824;2023-08-17T09:53:24;101868.09;;;19.39;98.55
61119;BME280;51448;51.660;5.824;2023-08-17T09:55:53;101863.50;;;19.43;98.41
61119;BME280;51448;51.660;5.824;2023-08-17T09:58:24;101870.41;;;19.47;98.40
61119;BME280;51448;51.660;5.824;2023-08-17T10:00:58;101860.44;;;19.50;97.91
61119;BME280;51448;51.660;5.824;2023-08-17T10:03:33;101863.81;;;19.54;97.92
61119;BME280;51448;51.660;5.824;2023-08-17T10:06:05;101865.31;;;19.60;97.89
61119;BME280;51448;51.660;5.824;2023-08-17T10:08:44;101867.47;;;19.70;97.93
61119;BME280;51448;51.660;5.824;2023-08-17T10:11:16;101859.63;;;19.85;97.90
61119;BME280;51448;51.660;5.824;2023-08-17T10:14:00;101854.44;;;19.99;97.26
61119;BME280;51448;51.660;5.824;2023-08-17T10:16:53;101852.19;;;20.09;95.81
61119;BME280;51448;51.660;5.824;2023-08-17T10:22:26;101855.88;;;20.06;95.08
61119;BME280;51448;51.660;5.824;2023-08-17T10:25:00;101857.91;;;20.01;95.24
61119;BME280;51448;51.660;5.824;2023-08-17T10:27:28;101850.06;;;19.98;95.29
61119;BME280;51448;51.660;5.824;2023-08-17T10:29:57;101844.88;;;19.95;95.28
61119;BME280;51448;51.660;5.824;2023-08-17T10:32:25;101844.00;;;19.95;95.23
61119;BME280;51448;51.660;5.824;2023-08-17T10:34:55;101851.16;;;19.94;95.11
61119;BME280;51448;51.660;5.824;2023-08-17T10:37:25;101840.50;;;19.94;95.39
61119;BME280;51448;51.660;5.824;2023-08-17T10:39:53;101835.88;;;19.98;94.97
61119;BME280;51448;51.660;5.824;2023-08-17T10:42:34;101832.00;;;20.03;94.54
61119;BME280;51448;51.660;5.824;2023-08-17T10:45:29;101835.38;;;20.07;94.38
61119;BME280;51448;51.660;5.824;2023-08-17T10:50:37;101851.00;;;20.15;94.57
61119;BME280;51448;51.660;5.824;2023-08-17T10:53:11;101848.25;;;20.16;94.12
61119;BME280;51448;51.660;5.824;2023-08-17T10:55:41;101844.09;;;20.10;94.19
61119;BME280;51448;51.660;5.824;2023-08-17T10:58:12;101843.91;;;20.14;94.34
61119;BME280;51448;51.660;5.824;2023-08-17T11:00:42;101833.16;;;20.15;94.28
61119;BME280;51448;51.660;5.824;2023-08-17T11:03:19;101840.06;;;20.19;94.96
61119;BME280;51448;51.660;5.824;2023-08-17T11:05:52;101840.00;;;20.21;94.51
61119;BME280;51448;51.660;5.824;2023-08-17T11:08:31;101852.31;;;20.23;94.51
61119;BME280;51448;51.660;5.824;2023-08-17T11:11:09;101847.75;;;20.25;94.00
61119;BME280;51448;51.660;5.824;2023-08-17T11:13:40;101842.34;;;20.27;93.92
61119;BME280;51448;51.660;5.824;2023-08-17T11:16:13;101847.50;;;20.30;94.30
61119;BME280;51448;51.660;5.824;2023-08-17T11:18:48;101849.97;;;20.35;94.49
61119;BME280;51448;51.660;5.824;2023-08-17T11:21:19;101846.06;;;20.40;94.35
61119;BME280;51448;51.660;5.824;2023-08-17T11:23:47;101853.16;;;20.41;94.26
61119;BME280;51448;51.660;5.824;2023-08-17T11:26:16;101860.22;;;20.42;94.41
61119;BME280;51448;51.660;5.824;2023-08-17T11:28:44;101854.72;;;20.45;94.80
61119;BME280;51448;51.660;5.824;2023-08-17T11:31:13;101858.19;;;20.47;94.53
61119;BME280;51448;51.660;5.824;2023-08-17T11:33:44;101854.47;;;20.50;94.18
61119;BME280;51448;51.660;5.824;2023-08-17T11:36:15;101862.47;;;20.50;94.09
61119;BME280;51448;51.660;5.824;2023-08-17T11:38:43;101861.63;;;20.49;93.90
61119;BME280;51448;51.660;5.824;2023-08-17T11:41:11;101861.78;;;20.46;94.29
61119;BME280;51448;51.660;5.824;2023-08-17T11:43:43;101862.66;;;20.47;94.62
61119;BME280;51448;51.660;5.824;2023-08-17T11:46:11;101855.50;;;20.47;95.12
61119;BME280;51448;51.660;5.824;2023-08-17T11:48:39;101858.00;;;20.50;94.08
61119;BME280;51448;51.660;5.824;2023-08-17T11:51:07;101855.56;;;20.46;93.93
61119;BME280;51448;51.660;5.824;2023-08-17T11:53:36;101855.84;;;20.41;93.64
61119;BME280;51448;51.660;5.824;2023-08-17T11:56:06;101844.38;;;20.39;94.70
61119;BME280;51448;51.660;5.824;2023-08-17T11:58:43;101851.28;;;20.43;94.33
61119;BME280;51448;51.660;5.824;2023-08-17T12:01:13;101850.31;;;20.44;94.13
61119;BME280;51448;51.660;5.824;2023-08-17T12:03:43;101846.00;;;20.42;94.67
61119;BME280;51448;51.660;5.824;2023-08-17T12:06:12;101845.75;;;20.46;95.76
61119;BME280;51448;51.660;5.824;2023-08-17T12:08:43;101850.59;;;20.56;95.96
61119;BME280;51448;51.660;5.824;2023-08-17T12:11:16;101842.09;;;20.65;95.00
61119;BME280;51448;51.660;5.824;2023-08-17T12:13:53;101844.63;;;20.68;94.96
61119;BME280;51448;51.660;5.824;2023-08-17T12:16:22;101841.69;;;20.73;94.55
61119;BME280;51448;51.660;5.824;2023-08-17T12:18:51;101845.22;;;20.73;94.12
61119;BME280;51448;51.660;5.824;2023-08-17T12:21:23;101847.91;;;20.73;94.13
61119;BME280;51448;51.660;5.824;2023-08-17T12:23:51;101849.97;;;20.68;94.37
61119;BME280;51448;51.660;5.824;2023-08-17T12:26:22;101848.34;;;20.65;94.52
61119;BME280;51448;51.660;5.824;2023-08-17T12:28:50;101846.59;;;20.64;93.71
61119;BME280;51448;51.660;5.824;2023-08-17T12:31:21;101846.78;;;20.61;94.14
61119;BME280;51448;51.660;5.824;2023-08-17T12:33:51;101847.63;;;20.62;94.27
61119;BME280;51448;51.660;5.824;2023-08-17T12:36:19;101837.88;;;20.61;94.58
61119;BME280;51448;51.660;5.824;2023-08-17T12:38:48;101847.63;;;20.62;94.44
61119;BME280;51448;51.660;5.824;2023-08-17T12:41:16;101845.13;;;20.59;94.31
61119;BME280;51448;51.660;5.824;2023-08-17T12:43:45;101849.66;;;20.57;94.37
61119;BME280;51448;51.660;5.824;2023-08-17T12:46:12;101845.25;;;20.56;94.65
61119;BME280;51448;51.660;5.824;2023-08-17T12:48:40;101835.31;;;20.59;94.64
61119;BME280;51448;51.660;5.824;2023-08-17T12:51:07;101844.97;;;20.62;94.53
61119;BME280;51448;51.660;5.824;2023-08-17T12:53:35;101840.41;;;20.64;94.94
61119;BME280;51448;51.660;5.824;2023-08-17T12:56:03;101849.78;;;20.71;94.85
61119;BME280;51448;51.660;5.824;2023-08-17T12:58:31;101850.56;;;20.73;94.62
61119;BME280;51448;51.660;5.824;2023-08-17T13:00:58;101849.78;;;20.71;95.39
61119;BME280;51448;51.660;5.824;2023-08-17T13:03:26;101840.00;;;20.72;94.27